Terminal Aerodrome Forecast
Issued by NWS

Home | Current Version | Previous Version | Text Only | Print | Product List | Glossary On
Versions: 1 2 3 4 5 6 7 8 9 10 11 12 13 14
000
FTUS46 KPDT 190500
TAFYKM
TAF
KYKM 190525Z 1906/2006 26005KT P6SM BKN200
     FM191600 24010KT P6SM BKN120
     FM192100 26018G28KT P6SM BKN060=

USA.gov is the U.S. government's official web portal to all federal, state and local government web resources and services.